• Join FlightAware (Why Join?)
  • Login
  • US Flag 
12:04AM EST


 

Airport Tracker/Info


-or-


 

Live Flight TrackerFlight Track Log ✈ TAM3841 ✈ 14-Jul-2013 ✈ SBFZ / FOR - SBTE / THE

Flight Track Log - Related Links

Times and Time Zones

All times are in EDT time to prevent confusion due to time zone crossing. See the TAM3841 flight status page for this flight to view local times or setup timezone preferences in your user account.

Time Position Orientation Groundspeed Altitude Reporting Facility
EDT Latitude Longitude Course Direction KTS MPH feet Rate Location/Type
03:20PM -3.7770 -38.5400 208° Southwest 10 12  Level FlightAware
03:23PM -3.7770 -38.5410 270° West 11 13 61 Level FlightAware
03:24PM -3.7760 -38.5420 315° West 13 15 110 Level FlightAware
03:24PM -3.7760 -38.5440 270° West 8 9 119 Level FlightAware
03:25PM -3.7750 -38.5440 360° North 13 15 139 Level FlightAware
03:25PM -3.7740 -38.5440 360° North 10 12 168 Level FlightAware
03:26PM -3.7730 -38.5440 360° North 12 14 199 Level FlightAware
03:27PM -3.7730 -38.5430 90° East 263 Level FlightAware
03:27PM -3.7740 -38.5430 180° South 32 37 337 Level FlightAware
03:28PM -3.7750 -38.5390 104° East 86 99 750 Level FlightAware
03:28PM -3.7790 -38.5230 104° East 145 167 500 1,364 Climbing FlightAware
03:28PM -3.7820 -38.5130 107° East 149 171 1,000 1,500 Climbing FlightAware
03:29PM -3.7860 -38.4950 103° East 175 201 1,500 1,125 Climbing FlightAware
03:29PM -3.7920 -38.4740 106° East 211 243 1,900 2,000 Climbing FlightAware
03:29PM -3.7960 -38.4510 100° East 212 244 3,100 2,864 Climbing FlightAware
03:30PM -3.7900 -38.4320 72° East 223 257 4,000 2,625 Climbing FlightAware
03:30PM -3.7800 -38.4230 42° Northeast 232 267 4,500 2,571 Climbing FlightAware
03:30PM -3.7640 -38.4170 21° North 243 280 5,200 2,368 Climbing FlightAware
03:31PM -3.7410 -38.4240 343° North 252 290 6,000 2,270 Climbing FlightAware
03:31PM -3.7300 -38.4380 308° West 255 293 6,600 2,200 Climbing FlightAware
03:31PM -3.7270 -38.4560 279° West 265 305 7,100 1,355 Climbing FlightAware
03:31PM -3.7320 -38.4730 254° West 276 318 7,300 1,200 Climbing FlightAware
03:32PM -3.7420 -38.4900 239° Southwest 285 328 7,700 2,318 Climbing FlightAware
03:32PM -3.7620 -38.5270 242° Southwest 293 337 9,000 2,400 Climbing FlightAware
03:33PM -3.7830 -38.5810 249° West 315 362 10,500 1,481 Climbing FlightAware
03:33PM -3.8010 -38.6410 253° West 362 417 11,000 1,325 Climbing FlightAware
03:34PM -3.8190 -38.7020 254° West 376 433 12,200 2,132 Climbing FlightAware
03:35PM -3.8400 -38.7690 253° West 379 436 13,700 2,023 Climbing FlightAware
03:36PM -3.8640 -38.8480 253° West 391 450 15,100 1,605 Climbing FlightAware
03:36PM -3.8860 -38.9190 253° West 405 466 16,000 1,425 Climbing FlightAware
03:37PM -3.9080 -38.9910 253° West 415 478 17,000 1,694 Climbing FlightAware
03:38PM -3.9330 -39.0730 253° West 419 482 18,400 1,814 Climbing FlightAware
03:38PM -3.9560 -39.1490 253° West 420 483 19,600 1,553 Climbing FlightAware
03:39PM -3.9820 -39.2330 253° West 426 490 20,600 1,317 Climbing FlightAware
03:40PM -4.0040 -39.3060 253° West 434 499 21,400 1,214 Climbing FlightAware
03:40PM -4.0310 -39.3950 253° West 442 509 22,300 1,186 Climbing FlightAware
03:41PM -4.0560 -39.4760 253° West 452 520 23,100 1,229 Climbing FlightAware
03:42PM -4.0820 -39.5610 253° West 456 525 24,000 1,395 Climbing FlightAware
03:43PM -4.1080 -39.6470 253° West 452 520 25,100 1,301 Climbing FlightAware
03:43PM -4.1320 -39.7280 253° West 458 527 25,800 1,143 Climbing FlightAware
03:44PM -4.1600 -39.8190 253° West 460 529 26,700 1,157 Climbing FlightAware
03:45PM -4.1840 -39.8970 253° West 464 534 27,400 1,143 Climbing FlightAware
03:45PM -4.2120 -39.9910 253° West 465 535 28,300 1,341 Climbing FlightAware
03:46PM -4.2370 -40.0730 253° West 464 534 29,300 1,291 Climbing FlightAware
03:47PM -4.2610 -40.1520 253° West 460 529 30,000 512 Climbing FlightAware
03:47PM -4.2870 -40.2390 253° West 454 522 30,000  Level FlightAware
03:48PM -4.3160 -40.3340 253° West 453 521 30,000  Level FlightAware
03:49PM -4.3410 -40.4170 253° West 454 522 30,000  Level FlightAware
03:49PM -4.3660 -40.4980 253° West 454 522 30,000  Level FlightAware
03:50PM -4.3870 -40.5660 253° West 453 521 30,000  Level FlightAware
03:51PM -4.4190 -40.6750 254° West 453 521 30,000  Level FlightAware
03:52PM -4.4410 -40.7540 254° West 453 521 30,000  Level FlightAware
03:52PM -4.4510 -40.8540 264° West 450 518 30,000  Level FlightAware
03:53PM -4.4580 -40.9370 265° West 449 517 30,000  Level FlightAware
03:54PM -4.4660 -41.0280 265° West 449 517 30,000  Level FlightAware
03:55PM -4.4760 -41.1380 265° West 449 517 30,000  Level FlightAware
03:55PM -4.4830 -41.2130 265° West 448 516 30,000 -83 Level FlightAware
03:56PM -4.4890 -41.2860 265° West 444 511 29,900 -1,083 Descending FlightAware
03:56PM -4.4950 -41.3600 265° West 441 507 28,700 -2,447 Descending FlightAware
03:57PM -4.5020 -41.4420 265° West 446 513 26,800 -2,581 Descending FlightAware
03:58PM -4.5100 -41.5340 265° West 438 504 25,000 -2,581 Descending FlightAware
03:59PM -4.5130 -41.6140 268° West 437 503 23,100 -2,593 Descending FlightAware
03:59PM -4.5090 -41.6970 273° West 432 497 21,500 -2,093 Descending FlightAware
04:00PM -4.4970 -41.7840 278° West 414 476 20,100 -2,055 Descending FlightAware
04:00PM -4.4900 -41.8370 278° West 408 470 19,000 -2,400 Descending FlightAware
04:01PM -4.4890 -41.9170 271° West 407 468 17,300 -1,857 Descending FlightAware
04:02PM -4.4920 -41.9950 268° West 381 438 16,400 -1,465 Descending FlightAware
04:03PM -4.5220 -42.0620 246° West 366 421 15,200 -1,950 Descending FlightAware
04:03PM -4.5480 -42.1190 245° Southwest 371 427 13,800 -2,250 Descending FlightAware
04:04PM -4.5740 -42.1750 245° Southwest 370 426 12,500 -1,462 Descending FlightAware
04:05PM -4.6030 -42.2380 245° Southwest 343 395 11,900 -857 Descending FlightAware
04:05PM -4.6300 -42.2960 245° Southwest 319 367 11,300 -1,200 Descending FlightAware
04:06PM -4.6530 -42.3460 245° Southwest 314 361 10,300 -1,500 Descending FlightAware
04:06PM -4.6710 -42.3860 246° West 309 356 9,600 -1,345 Descending FlightAware
04:07PM -4.6870 -42.4210 245° Southwest 304 350 9,000 -1,444 Descending FlightAware
04:07PM -4.7030 -42.4550 245° Southwest 303 349 8,300 -1,500 Descending FlightAware
04:08PM -4.7180 -42.4890 246° West 301 346 7,700 -1,444 Descending FlightAware
04:08PM -4.7340 -42.5230 245° Southwest 299 344 7,000 -1,500 Descending FlightAware
04:09PM -4.7510 -42.5600 245° Southwest 297 342 6,300 -1,500 Descending FlightAware
04:09PM -4.7600 -42.5790 245° Southwest 293 337 5,900 -1,364 Descending FlightAware
04:09PM -4.7760 -42.6140 245° Southwest 288 331 5,300 -1,385 Descending FlightAware
04:10PM -4.7890 -42.6410 244° Southwest 282 325 4,700 -1,241 Descending FlightAware
04:10PM -4.8070 -42.6820 246° West 273 314 4,100 -375 Descending FlightAware
04:11PM -4.8360 -42.7460 246° West 224 258 4,100 -214 Level FlightAware
04:12PM -4.8460 -42.7660 243° Southwest 222 255 3,800 -778 Descending FlightAware
04:12PM -4.8600 -42.7950 244° Southwest 220 253 3,400 -875 Descending FlightAware
04:13PM -4.8680 -42.8110 243° Southwest 220 253 3,100 -1,050 Descending FlightAware
04:13PM -4.8790 -42.8320 242° Southwest 214 246 2,700 -750 Descending FlightAware
04:13PM -4.8910 -42.8410 217° Southwest 199 229 2,600 -250 Descending FlightAware
04:13PM -4.8970 -42.8410 180° South 194 223 2,600  Level FlightAware
04:14PM -4.9300 -42.8370 173° South 181 208 2,600 -387 Level FlightAware
04:14PM -4.9510 -42.8340 172° South 159 183 2,200 -857 Descending FlightAware
04:15PM -4.9620 -42.8330 175° South 150 173 2,000 -818 Descending FlightAware
04:15PM -4.9810 -42.8320 177° South 147 169 1,600 -789 Descending FlightAware
04:15PM -4.9890 -42.8310 173° South 147 169 1,500 -789 Descending FlightAware
04:16PM -5.0080 -42.8290 174° South 148 170 1,100 -750 Descending FlightAware
04:16PM -5.0210 -42.8280 176° South 148 170 900 -808 Descending FlightAware
04:17PM -5.0440 -42.8250 173° South 147 169 400 -938 Descending FlightAware
04:17PM -5.0610 -42.8240 177° South 115 132 -857 Descending FlightAware
04:18PM -5.0660 -42.8230 169° South 23 26  Level FlightAware
04:18PM -5.0660 -42.8220 90° East 14 16  Level FlightAware
04:19PM -5.0650 -42.8220 360° North 12 14  Level FlightAware
04:19PM -5.0640 -42.8220 360° North 23 26  Level FlightAware
04:22PM -5.0599 -42.8235 340° North  Level Estimated
04:23PM -5.0599 -42.8235 135° Southeast  Level Estimated
04:24PM -5.0599 -42.8235 135° Southeast  Level Estimated
04:25PM -5.0599 -42.8235 135° Southeast  Level Estimated
04:26PM -5.0599 -42.8235 135° Southeast  Level Estimated
04:27PM -5.0599 -42.8235 135° Southeast  Level Estimated
04:28PM -5.0599 -42.8235 135° Southeast  Level Estimated
04:29PM -5.0599 -42.8235 135° Southeast  Level Estimated
04:30PM -5.0599 -42.8235 135° Southeast  Level Estimated
04:31PM -5.0599 -42.8235 135° Southeast  Level Estimated
04:32PM -5.0599 -42.8235 135° Southeast  Level Estimated
04:33PM -5.0599 -42.8235 135° Southeast  Level Estimated
04:34PM -5.0599 -42.8235 135° Southeast  Level Estimated
04:35PM -5.0599 -42.8235 135° Southeast  Level Estimated